sensor_id;sensor_type;location;lat;lon;timestamp;P1;durP1;ratioP1;P2;durP2;ratioP2
21941;SDS011;11135;54.192;15.670;2023-03-24T00:00:20;9.70;;;5.95;;
21941;SDS011;11135;54.192;15.670;2023-03-24T00:03:52;9.02;;;5.35;;
21941;SDS011;11135;54.192;15.670;2023-03-24T00:07:05;8.75;;;5.57;;
21941;SDS011;11135;54.192;15.670;2023-03-24T00:10:16;11.77;;;5.40;;
21941;SDS011;11135;54.192;15.670;2023-03-24T00:13:25;8.23;;;5.15;;
21941;SDS011;11135;54.192;15.670;2023-03-24T00:16:45;9.48;;;4.97;;
21941;SDS011;11135;54.192;15.670;2023-03-24T00:19:59;11.93;;;5.65;;
21941;SDS011;11135;54.192;15.670;2023-03-24T00:23:18;11.30;;;5.85;;
21941;SDS011;11135;54.192;15.670;2023-03-24T00:26:26;11.77;;;5.82;;
21941;SDS011;11135;54.192;15.670;2023-03-24T00:29:34;9.38;;;5.53;;
21941;SDS011;11135;54.192;15.670;2023-03-24T00:32:42;11.30;;;5.82;;
21941;SDS011;11135;54.192;15.670;2023-03-24T00:35:57;11.75;;;5.93;;
21941;SDS011;11135;54.192;15.670;2023-03-24T00:39:05;11.03;;;6.27;;
21941;SDS011;11135;54.192;15.670;2023-03-24T00:42:13;10.43;;;5.78;;
21941;SDS011;11135;54.192;15.670;2023-03-24T00:45:28;10.85;;;6.03;;
21941;SDS011;11135;54.192;15.670;2023-03-24T00:48:38;11.68;;;6.30;;
21941;SDS011;11135;54.192;15.670;2023-03-24T00:52:00;12.02;;;6.55;;
21941;SDS011;11135;54.192;15.670;2023-03-24T00:55:11;11.38;;;5.38;;
21941;SDS011;11135;54.192;15.670;2023-03-24T00:58:18;11.23;;;6.03;;
21941;SDS011;11135;54.192;15.670;2023-03-24T01:01:24;11.35;;;5.80;;
21941;SDS011;11135;54.192;15.670;2023-03-24T01:04:30;11.88;;;6.30;;
21941;SDS011;11135;54.192;15.670;2023-03-24T01:07:40;9.82;;;5.75;;
21941;SDS011;11135;54.192;15.670;2023-03-24T01:10:47;11.55;;;5.78;;
21941;SDS011;11135;54.192;15.670;2023-03-24T01:13:54;8.10;;;4.63;;
21941;SDS011;11135;54.192;15.670;2023-03-24T01:17:01;11.80;;;5.40;;
21941;SDS011;11135;54.192;15.670;2023-03-24T01:20:09;7.13;;;4.47;;
21941;SDS011;11135;54.192;15.670;2023-03-24T01:23:19;9.15;;;4.00;;
21941;SDS011;11135;54.192;15.670;2023-03-24T01:26:25;7.25;;;4.25;;
21941;SDS011;11135;54.192;15.670;2023-03-24T01:29:31;9.52;;;4.63;;
21941;SDS011;11135;54.192;15.670;2023-03-24T01:32:37;9.75;;;4.32;;
21941;SDS011;11135;54.192;15.670;2023-03-24T01:35:45;9.32;;;4.47;;
21941;SDS011;11135;54.192;15.670;2023-03-24T01:38:55;8.18;;;4.57;;
21941;SDS011;11135;54.192;15.670;2023-03-24T01:42:02;8.85;;;4.85;;
21941;SDS011;11135;54.192;15.670;2023-03-24T01:48:37;9.55;;;4.72;;
21941;SDS011;11135;54.192;15.670;2023-03-24T01:51:46;9.32;;;4.70;;
21941;SDS011;11135;54.192;15.670;2023-03-24T01:54:57;6.80;;;4.30;;
21941;SDS011;11135;54.192;15.670;2023-03-24T01:58:06;9.02;;;5.32;;
21941;SDS011;11135;54.192;15.670;2023-03-24T02:01:12;7.97;;;4.60;;
21941;SDS011;11135;54.192;15.670;2023-03-24T02:04:20;10.60;;;5.30;;
21941;SDS011;11135;54.192;15.670;2023-03-24T02:07:30;7.88;;;4.57;;
21941;SDS011;11135;54.192;15.670;2023-03-24T02:10:41;8.02;;;4.50;;
21941;SDS011;11135;54.192;15.670;2023-03-24T02:13:49;11.52;;;4.68;;
21941;SDS011;11135;54.192;15.670;2023-03-24T02:27:18;10.40;;;5.25;;
21941;SDS011;11135;54.192;15.670;2023-03-24T02:30:34;7.82;;;4.00;;
21941;SDS011;11135;54.192;15.670;2023-03-24T02:37:20;8.98;;;4.90;;
21941;SDS011;11135;54.192;15.670;2023-03-24T02:40:37;9.30;;;4.90;;
21941;SDS011;11135;54.192;15.670;2023-03-24T02:43:51;8.27;;;4.63;;
21941;SDS011;11135;54.192;15.670;2023-03-24T02:47:04;7.43;;;4.47;;
21941;SDS011;11135;54.192;15.670;2023-03-24T02:50:16;8.32;;;4.90;;
21941;SDS011;11135;54.192;15.670;2023-03-24T02:53:26;8.90;;;4.55;;
21941;SDS011;11135;54.192;15.670;2023-03-24T02:56:37;8.50;;;4.95;;
21941;SDS011;11135;54.192;15.670;2023-03-24T02:59:46;8.52;;;5.00;;
21941;SDS011;11135;54.192;15.670;2023-03-24T03:02:54;10.45;;;4.90;;
21941;SDS011;11135;54.192;15.670;2023-03-24T03:06:05;9.27;;;4.50;;
21941;SDS011;11135;54.192;15.670;2023-03-24T03:09:16;10.82;;;4.22;;
21941;SDS011;11135;54.192;15.670;2023-03-24T03:12:33;9.85;;;4.72;;
21941;SDS011;11135;54.192;15.670;2023-03-24T03:15:41;7.65;;;4.18;;
21941;SDS011;11135;54.192;15.670;2023-03-24T03:18:50;8.85;;;4.85;;
21941;SDS011;11135;54.192;15.670;2023-03-24T03:21:57;6.45;;;4.15;;
21941;SDS011;11135;54.192;15.670;2023-03-24T03:25:05;8.70;;;4.72;;
21941;SDS011;11135;54.192;15.670;2023-03-24T03:28:19;10.07;;;4.53;;
21941;SDS011;11135;54.192;15.670;2023-03-24T03:31:26;11.25;;;5.13;;
21941;SDS011;11135;54.192;15.670;2023-03-24T03:34:37;8.45;;;4.38;;
21941;SDS011;11135;54.192;15.670;2023-03-24T03:37:48;7.90;;;4.68;;
21941;SDS011;11135;54.192;15.670;2023-03-24T03:40:57;7.13;;;3.90;;
21941;SDS011;11135;54.192;15.670;2023-03-24T03:44:08;8.23;;;5.07;;
21941;SDS011;11135;54.192;15.670;2023-03-24T03:47:14;8.85;;;4.50;;
21941;SDS011;11135;54.192;15.670;2023-03-24T03:50:24;7.35;;;4.72;;
21941;SDS011;11135;54.192;15.670;2023-03-24T03:53:30;7.50;;;4.60;;
21941;SDS011;11135;54.192;15.670;2023-03-24T03:56:45;8.15;;;4.40;;
21941;SDS011;11135;54.192;15.670;2023-03-24T03:59:55;5.78;;;3.50;;
21941;SDS011;11135;54.192;15.670;2023-03-24T04:03:08;8.77;;;4.65;;
21941;SDS011;11135;54.192;15.670;2023-03-24T04:06:21;9.75;;;4.00;;
21941;SDS011;11135;54.192;15.670;2023-03-24T04:09:35;10.70;;;5.07;;
21941;SDS011;11135;54.192;15.670;2023-03-24T04:12:48;10.63;;;4.70;;
21941;SDS011;11135;54.192;15.670;2023-03-24T04:15:57;8.63;;;4.32;;
21941;SDS011;11135;54.192;15.670;2023-03-24T04:19:17;7.13;;;4.20;;
21941;SDS011;11135;54.192;15.670;2023-03-24T04:22:30;5.95;;;3.92;;
21941;SDS011;11135;54.192;15.670;2023-03-24T04:25:41;9.57;;;4.77;;
21941;SDS011;11135;54.192;15.670;2023-03-24T04:28:53;9.50;;;3.97;;
21941;SDS011;11135;54.192;15.670;2023-03-24T04:32:05;8.68;;;4.22;;
21941;SDS011;11135;54.192;15.670;2023-03-24T04:35:14;6.60;;;3.58;;
21941;SDS011;11135;54.192;15.670;2023-03-24T04:38:32;6.75;;;4.20;;
21941;SDS011;11135;54.192;15.670;2023-03-24T04:41:43;6.80;;;3.67;;
21941;SDS011;11135;54.192;15.670;2023-03-24T04:44:49;5.80;;;3.55;;
21941;SDS011;11135;54.192;15.670;2023-03-24T04:48:03;6.32;;;3.67;;
21941;SDS011;11135;54.192;15.670;2023-03-24T04:51:10;8.95;;;4.60;;
21941;SDS011;11135;54.192;15.670;2023-03-24T04:54:16;6.90;;;3.92;;
21941;SDS011;11135;54.192;15.670;2023-03-24T04:57:22;5.78;;;4.15;;
21941;SDS011;11135;54.192;15.670;2023-03-24T05:00:28;7.63;;;4.25;;
21941;SDS011;11135;54.192;15.670;2023-03-24T05:03:38;6.95;;;4.85;;
21941;SDS011;11135;54.192;15.670;2023-03-24T05:06:47;9.45;;;4.63;;
21941;SDS011;11135;54.192;15.670;2023-03-24T05:09:53;7.32;;;4.32;;
21941;SDS011;11135;54.192;15.670;2023-03-24T05:13:04;8.13;;;4.35;;
21941;SDS011;11135;54.192;15.670;2023-03-24T05:16:09;9.18;;;4.70;;
21941;SDS011;11135;54.192;15.670;2023-03-24T05:19:18;8.35;;;4.82;;
21941;SDS011;11135;54.192;15.670;2023-03-24T05:22:31;11.68;;;5.55;;
21941;SDS011;11135;54.192;15.670;2023-03-24T05:25:41;7.05;;;4.30;;
21941;SDS011;11135;54.192;15.670;2023-03-24T05:28:47;8.68;;;6.47;;
21941;SDS011;11135;54.192;15.670;2023-03-24T05:31:53;8.55;;;5.30;;
21941;SDS011;11135;54.192;15.670;2023-03-24T05:35:02;7.57;;;5.13;;
21941;SDS011;11135;54.192;15.670;2023-03-24T05:38:08;7.47;;;5.22;;
21941;SDS011;11135;54.192;15.670;2023-03-24T05:41:14;9.55;;;6.05;;
21941;SDS011;11135;54.192;15.670;2023-03-24T05:44:20;9.93;;;5.93;;
21941;SDS011;11135;54.192;15.670;2023-03-24T05:47:26;7.70;;;4.60;;
21941;SDS011;11135;54.192;15.670;2023-03-24T05:50:45;11.45;;;6.57;;
21941;SDS011;11135;54.192;15.670;2023-03-24T05:53:51;9.40;;;5.68;;
21941;SDS011;11135;54.192;15.670;2023-03-24T05:57:02;8.05;;;5.20;;
21941;SDS011;11135;54.192;15.670;2023-03-24T06:00:11;8.48;;;6.00;;
21941;SDS011;11135;54.192;15.670;2023-03-24T06:03:20;8.40;;;5.45;;
21941;SDS011;11135;54.192;15.670;2023-03-24T06:06:30;11.10;;;5.40;;
21941;SDS011;11135;54.192;15.670;2023-03-24T06:09:39;8.65;;;5.88;;
21941;SDS011;11135;54.192;15.670;2023-03-24T06:16:05;7.47;;;4.85;;
21941;SDS011;11135;54.192;15.670;2023-03-24T06:22:21;9.88;;;6.20;;
21941;SDS011;11135;54.192;15.670;2023-03-24T06:25:29;8.13;;;6.13;;
21941;SDS011;11135;54.192;15.670;2023-03-24T06:28:36;9.68;;;6.78;;
21941;SDS011;11135;54.192;15.670;2023-03-24T06:31:44;9.32;;;6.53;;
21941;SDS011;11135;54.192;15.670;2023-03-24T06:34:51;8.65;;;5.43;;
21941;SDS011;11135;54.192;15.670;2023-03-24T06:38:00;8.15;;;5.72;;
21941;SDS011;11135;54.192;15.670;2023-03-24T06:41:06;9.10;;;6.38;;
21941;SDS011;11135;54.192;15.670;2023-03-24T06:44:11;8.30;;;4.78;;
21941;SDS011;11135;54.192;15.670;2023-03-24T06:47:17;7.57;;;5.13;;
21941;SDS011;11135;54.192;15.670;2023-03-24T06:50:23;7.72;;;5.07;;
21941;SDS011;11135;54.192;15.670;2023-03-24T06:53:37;7.68;;;4.78;;
21941;SDS011;11135;54.192;15.670;2023-03-24T06:56:42;8.18;;;5.10;;
21941;SDS011;11135;54.192;15.670;2023-03-24T06:59:48;8.00;;;4.90;;
21941;SDS011;11135;54.192;15.670;2023-03-24T07:02:54;8.90;;;5.13;;
21941;SDS011;11135;54.192;15.670;2023-03-24T07:06:00;7.22;;;5.00;;
21941;SDS011;11135;54.192;15.670;2023-03-24T07:09:09;6.72;;;4.63;;
21941;SDS011;11135;54.192;15.670;2023-03-24T07:12:15;5.70;;;4.00;;
21941;SDS011;11135;54.192;15.670;2023-03-24T07:15:20;7.63;;;4.75;;
21941;SDS011;11135;54.192;15.670;2023-03-24T07:18:26;6.00;;;4.00;;
21941;SDS011;11135;54.192;15.670;2023-03-24T07:21:31;5.88;;;4.30;;
21941;SDS011;11135;54.192;15.670;2023-03-24T07:24:40;6.18;;;4.68;;
21941;SDS011;11135;54.192;15.670;2023-03-24T07:27:46;5.82;;;4.22;;
21941;SDS011;11135;54.192;15.670;2023-03-24T07:30:52;6.47;;;4.28;;
21941;SDS011;11135;54.192;15.670;2023-03-24T07:33:58;5.47;;;3.80;;
21941;SDS011;11135;54.192;15.670;2023-03-24T07:37:04;7.03;;;4.55;;
21941;SDS011;11135;54.192;15.670;2023-03-24T07:40:12;6.47;;;4.32;;
21941;SDS011;11135;54.192;15.670;2023-03-24T07:43:18;6.32;;;4.53;;
21941;SDS011;11135;54.192;15.670;2023-03-24T07:46:24;6.50;;;4.40;;
21941;SDS011;11135;54.192;15.670;2023-03-24T07:49:30;4.95;;;3.88;;
21941;SDS011;11135;54.192;15.670;2023-03-24T07:52:48;6.63;;;4.30;;
21941;SDS011;11135;54.192;15.670;2023-03-24T07:55:57;4.95;;;3.38;;
21941;SDS011;11135;54.192;15.670;2023-03-24T07:59:07;6.63;;;4.10;;
21941;SDS011;11135;54.192;15.670;2023-03-24T08:02:15;5.15;;;4.13;;
21941;SDS011;11135;54.192;15.670;2023-03-24T08:05:22;5.05;;;3.85;;
21941;SDS011;11135;54.192;15.670;2023-03-24T08:08:32;6.70;;;5.05;;
21941;SDS011;11135;54.192;15.670;2023-03-24T08:11:43;6.10;;;4.65;;
21941;SDS011;11135;54.192;15.670;2023-03-24T08:14:52;5.53;;;4.05;;
21941;SDS011;11135;54.192;15.670;2023-03-24T08:18:03;6.53;;;4.53;;
21941;SDS011;11135;54.192;15.670;2023-03-24T08:21:26;6.55;;;4.72;;
21941;SDS011;11135;54.192;15.670;2023-03-24T08:24:34;4.75;;;3.83;;
21941;SDS011;11135;54.192;15.670;2023-03-24T08:27:44;6.82;;;3.90;;
21941;SDS011;11135;54.192;15.670;2023-03-24T08:30:51;5.10;;;4.35;;
21941;SDS011;11135;54.192;15.670;2023-03-24T08:34:01;5.93;;;3.80;;
21941;SDS011;11135;54.192;15.670;2023-03-24T08:37:07;6.22;;;4.53;;
21941;SDS011;11135;54.192;15.670;2023-03-24T08:40:14;4.82;;;4.28;;
21941;SDS011;11135;54.192;15.670;2023-03-24T08:43:25;4.38;;;3.40;;
21941;SDS011;11135;54.192;15.670;2023-03-24T08:46:31;7.60;;;3.92;;
21941;SDS011;11135;54.192;15.670;2023-03-24T08:49:38;5.82;;;4.05;;
21941;SDS011;11135;54.192;15.670;2023-03-24T08:56:01;4.65;;;3.75;;
21941;SDS011;11135;54.192;15.670;2023-03-24T08:59:11;5.70;;;3.67;;
21941;SDS011;11135;54.192;15.670;2023-03-24T09:02:17;6.25;;;3.78;;
21941;SDS011;11135;54.192;15.670;2023-03-24T09:05:23;4.60;;;3.60;;
21941;SDS011;11135;54.192;15.670;2023-03-24T09:08:45;8.38;;;4.32;;
21941;SDS011;11135;54.192;15.670;2023-03-24T09:11:51;4.55;;;3.47;;
21941;SDS011;11135;54.192;15.670;2023-03-24T09:15:05;5.80;;;3.85;;
21941;SDS011;11135;54.192;15.670;2023-03-24T09:18:19;5.18;;;3.72;;
21941;SDS011;11135;54.192;15.670;2023-03-24T09:21:34;4.40;;;3.28;;
21941;SDS011;11135;54.192;15.670;2023-03-24T09:24:40;6.20;;;3.92;;
21941;SDS011;11135;54.192;15.670;2023-03-24T09:27:46;4.60;;;3.50;;
21941;SDS011;11135;54.192;15.670;2023-03-24T09:30:59;5.50;;;3.70;;
21941;SDS011;11135;54.192;15.670;2023-03-24T09:34:04;4.13;;;3.13;;
21941;SDS011;11135;54.192;15.670;2023-03-24T09:37:12;6.47;;;3.38;;
21941;SDS011;11135;54.192;15.670;2023-03-24T09:40:18;5.10;;;3.25;;
21941;SDS011;11135;54.192;15.670;2023-03-24T09:43:26;4.32;;;3.25;;
21941;SDS011;11135;54.192;15.670;2023-03-24T09:46:38;5.15;;;3.58;;
21941;SDS011;11135;54.192;15.670;2023-03-24T09:49:46;4.53;;;3.00;;
21941;SDS011;11135;54.192;15.670;2023-03-24T09:52:53;4.30;;;3.22;;
21941;SDS011;11135;54.192;15.670;2023-03-24T09:56:00;5.63;;;3.38;;
21941;SDS011;11135;54.192;15.670;2023-03-24T09:59:11;4.80;;;2.90;;
21941;SDS011;11135;54.192;15.670;2023-03-24T10:02:21;4.97;;;3.47;;
21941;SDS011;11135;54.192;15.670;2023-03-24T10:05:28;5.72;;;3.33;;
21941;SDS011;11135;54.192;15.670;2023-03-24T10:08:38;5.50;;;4.07;;
21941;SDS011;11135;54.192;15.670;2023-03-24T10:11:45;6.18;;;4.47;;
21941;SDS011;11135;54.192;15.670;2023-03-24T10:14:58;4.45;;;3.22;;
21941;SDS011;11135;54.192;15.670;2023-03-24T10:21:16;7.28;;;4.07;;
21941;SDS011;11135;54.192;15.670;2023-03-24T10:24:24;6.25;;;4.28;;
21941;SDS011;11135;54.192;15.670;2023-03-24T10:27:33;7.03;;;4.18;;
21941;SDS011;11135;54.192;15.670;2023-03-24T10:30:40;5.95;;;4.50;;
21941;SDS011;11135;54.192;15.670;2023-03-24T10:33:50;6.80;;;5.05;;
21941;SDS011;11135;54.192;15.670;2023-03-24T10:37:02;6.07;;;4.35;;
21941;SDS011;11135;54.192;15.670;2023-03-24T10:40:13;7.82;;;4.68;;
21941;SDS011;11135;54.192;15.670;2023-03-24T10:43:22;7.72;;;5.15;;
21941;SDS011;11135;54.192;15.670;2023-03-24T10:46:29;6.97;;;5.47;;
21941;SDS011;11135;54.192;15.670;2023-03-24T10:49:41;7.18;;;5.93;;
21941;SDS011;11135;54.192;15.670;2023-03-24T10:52:59;9.95;;;6.78;;
21941;SDS011;11135;54.192;15.670;2023-03-24T10:56:11;8.00;;;6.65;;
21941;SDS011;11135;54.192;15.670;2023-03-24T10:59:21;7.72;;;5.97;;
21941;SDS011;11135;54.192;15.670;2023-03-24T11:02:31;8.57;;;6.28;;
21941;SDS011;11135;54.192;15.670;2023-03-24T11:05:45;8.57;;;6.68;;
21941;SDS011;11135;54.192;15.670;2023-03-24T11:12:24;8.88;;;6.70;;
21941;SDS011;11135;54.192;15.670;2023-03-24T11:15:30;8.27;;;5.88;;
21941;SDS011;11135;54.192;15.670;2023-03-24T11:18:53;8.18;;;6.20;;
21941;SDS011;11135;54.192;15.670;2023-03-24T11:22:04;14.57;;;7.90;;
21941;SDS011;11135;54.192;15.670;2023-03-24T11:25:11;9.93;;;7.85;;
21941;SDS011;11135;54.192;15.670;2023-03-24T11:28:23;6.20;;;5.53;;
21941;SDS011;11135;54.192;15.670;2023-03-24T11:31:34;8.15;;;5.90;;
21941;SDS011;11135;54.192;15.670;2023-03-24T11:34:43;8.70;;;6.90;;
21941;SDS011;11135;54.192;15.670;2023-03-24T11:37:53;7.68;;;6.88;;
21941;SDS011;11135;54.192;15.670;2023-03-24T11:41:01;6.45;;;5.65;;
21941;SDS011;11135;54.192;15.670;2023-03-24T11:44:18;8.30;;;6.78;;
21941;SDS011;11135;54.192;15.670;2023-03-24T11:47:27;10.35;;;7.13;;
21941;SDS011;11135;54.192;15.670;2023-03-24T11:50:34;6.82;;;5.95;;
21941;SDS011;11135;54.192;15.670;2023-03-24T11:53:43;10.10;;;7.60;;
21941;SDS011;11135;54.192;15.670;2023-03-24T11:56:52;7.20;;;5.88;;
21941;SDS011;11135;54.192;15.670;2023-03-24T12:00:03;7.00;;;5.07;;
21941;SDS011;11135;54.192;15.670;2023-03-24T12:03:26;6.00;;;5.28;;
21941;SDS011;11135;54.192;15.670;2023-03-24T12:06:40;6.20;;;5.35;;
21941;SDS011;11135;54.192;15.670;2023-03-24T12:09:51;5.95;;;4.82;;
21941;SDS011;11135;54.192;15.670;2023-03-24T12:13:02;7.13;;;5.53;;
21941;SDS011;11135;54.192;15.670;2023-03-24T12:16:29;7.82;;;5.18;;
21941;SDS011;11135;54.192;15.670;2023-03-24T12:19:48;6.68;;;5.03;;
21941;SDS011;11135;54.192;15.670;2023-03-24T12:22:58;5.25;;;4.30;;
21941;SDS011;11135;54.192;15.670;2023-03-24T12:26:09;5.47;;;4.35;;
21941;SDS011;11135;54.192;15.670;2023-03-24T12:29:25;5.47;;;4.03;;
21941;SDS011;11135;54.192;15.670;2023-03-24T12:32:46;5.82;;;4.35;;
21941;SDS011;11135;54.192;15.670;2023-03-24T12:36:00;5.93;;;4.50;;
21941;SDS011;11135;54.192;15.670;2023-03-24T12:39:10;5.70;;;3.90;;
21941;SDS011;11135;54.192;15.670;2023-03-24T12:42:19;5.03;;;3.75;;
21941;SDS011;11135;54.192;15.670;2023-03-24T12:45:29;4.95;;;3.30;;
21941;SDS011;11135;54.192;15.670;2023-03-24T12:55:28;4.30;;;3.03;;
21941;SDS011;11135;54.192;15.670;2023-03-24T12:58:38;3.72;;;2.40;;
21941;SDS011;11135;54.192;15.670;2023-03-24T13:01:49;4.38;;;2.25;;
21941;SDS011;11135;54.192;15.670;2023-03-24T13:04:56;2.85;;;2.03;;
21941;SDS011;11135;54.192;15.670;2023-03-24T13:08:13;3.53;;;2.33;;
21941;SDS011;11135;54.192;15.670;2023-03-24T13:11:24;2.95;;;2.08;;
21941;SDS011;11135;54.192;15.670;2023-03-24T13:14:45;3.00;;;1.83;;
21941;SDS011;11135;54.192;15.670;2023-03-24T13:17:53;2.95;;;2.05;;
21941;SDS011;11135;54.192;15.670;2023-03-24T13:21:03;3.08;;;1.98;;
21941;SDS011;11135;54.192;15.670;2023-03-24T13:24:13;2.88;;;1.73;;
21941;SDS011;11135;54.192;15.670;2023-03-24T13:27:23;4.93;;;1.92;;
21941;SDS011;11135;54.192;15.670;2023-03-24T13:30:32;2.65;;;2.08;;
21941;SDS011;11135;54.192;15.670;2023-03-24T13:33:54;5.43;;;1.85;;
21941;SDS011;11135;54.192;15.670;2023-03-24T13:37:01;4.63;;;1.95;;
21941;SDS011;11135;54.192;15.670;2023-03-24T13:40:08;5.80;;;2.55;;
21941;SDS011;11135;54.192;15.670;2023-03-24T13:43:21;3.50;;;2.25;;
21941;SDS011;11135;54.192;15.670;2023-03-24T13:46:26;2.55;;;1.80;;
21941;SDS011;11135;54.192;15.670;2023-03-24T13:49:33;3.95;;;1.88;;
21941;SDS011;11135;54.192;15.670;2023-03-24T13:52:39;6.70;;;1.80;;
21941;SDS011;11135;54.192;15.670;2023-03-24T13:55:54;4.55;;;2.03;;
21941;SDS011;11135;54.192;15.670;2023-03-24T14:06:00;6.13;;;1.90;;
21941;SDS011;11135;54.192;15.670;2023-03-24T14:09:13;4.28;;;1.77;;
21941;SDS011;11135;54.192;15.670;2023-03-24T14:12:22;7.28;;;1.83;;
21941;SDS011;11135;54.192;15.670;2023-03-24T14:15:29;3.90;;;1.83;;
21941;SDS011;11135;54.192;15.670;2023-03-24T14:18:39;6.28;;;2.00;;
21941;SDS011;11135;54.192;15.670;2023-03-24T14:21:54;4.32;;;1.73;;
21941;SDS011;11135;54.192;15.670;2023-03-24T14:25:02;6.10;;;1.85;;
21941;SDS011;11135;54.192;15.670;2023-03-24T14:28:21;3.97;;;1.88;;
21941;SDS011;11135;54.192;15.670;2023-03-24T14:31:28;4.30;;;1.30;;
21941;SDS011;11135;54.192;15.670;2023-03-24T14:34:35;5.40;;;1.73;;
21941;SDS011;11135;54.192;15.670;2023-03-24T14:40:58;7.10;;;1.63;;
21941;SDS011;11135;54.192;15.670;2023-03-24T14:44:09;5.40;;;1.42;;
21941;SDS011;11135;54.192;15.670;2023-03-24T14:47:15;8.52;;;1.50;;
21941;SDS011;11135;54.192;15.670;2023-03-24T14:50:22;5.38;;;2.30;;
21941;SDS011;11135;54.192;15.670;2023-03-24T14:53:30;5.30;;;1.85;;
21941;SDS011;11135;54.192;15.670;2023-03-24T14:56:43;6.50;;;1.55;;
21941;SDS011;11135;54.192;15.670;2023-03-24T14:59:53;6.85;;;1.70;;
21941;SDS011;11135;54.192;15.670;2023-03-24T15:03:02;4.75;;;1.42;;
21941;SDS011;11135;54.192;15.670;2023-03-24T15:06:18;5.82;;;1.90;;
21941;SDS011;11135;54.192;15.670;2023-03-24T15:09:24;5.13;;;1.45;;
21941;SDS011;11135;54.192;15.670;2023-03-24T15:12:33;7.13;;;1.40;;
21941;SDS011;11135;54.192;15.670;2023-03-24T15:15:45;2.57;;;1.30;;
21941;SDS011;11135;54.192;15.670;2023-03-24T15:18:51;5.47;;;1.67;;
21941;SDS011;11135;54.192;15.670;2023-03-24T15:22:04;6.10;;;2.42;;
21941;SDS011;11135;54.192;15.670;2023-03-24T15:25:10;5.00;;;1.23;;
21941;SDS011;11135;54.192;15.670;2023-03-24T15:28:21;4.72;;;1.42;;
21941;SDS011;11135;54.192;15.670;2023-03-24T15:31:29;8.27;;;1.92;;
21941;SDS011;11135;54.192;15.670;2023-03-24T15:34:38;3.75;;;1.35;;
21941;SDS011;11135;54.192;15.670;2023-03-24T15:37:49;6.40;;;1.48;;
21941;SDS011;11135;54.192;15.670;2023-03-24T15:40:55;6.05;;;1.60;;
21941;SDS011;11135;54.192;15.670;2023-03-24T15:44:06;4.97;;;1.42;;
21941;SDS011;11135;54.192;15.670;2023-03-24T15:47:13;5.90;;;1.65;;
21941;SDS011;11135;54.192;15.670;2023-03-24T15:50:30;6.93;;;1.98;;
21941;SDS011;11135;54.192;15.670;2023-03-24T15:53:38;5.32;;;1.50;;
21941;SDS011;11135;54.192;15.670;2023-03-24T15:56:57;6.93;;;2.13;;
21941;SDS011;11135;54.192;15.670;2023-03-24T16:00:10;8.70;;;2.20;;
21941;SDS011;11135;54.192;15.670;2023-03-24T16:06:37;5.80;;;1.75;;
21941;SDS011;11135;54.192;15.670;2023-03-24T16:09:44;7.22;;;1.73;;
21941;SDS011;11135;54.192;15.670;2023-03-24T16:13:03;8.43;;;1.95;;
21941;SDS011;11135;54.192;15.670;2023-03-24T16:16:23;6.47;;;1.70;;
21941;SDS011;11135;54.192;15.670;2023-03-24T16:19:29;7.35;;;1.80;;
21941;SDS011;11135;54.192;15.670;2023-03-24T16:22:35;5.80;;;1.98;;
21941;SDS011;11135;54.192;15.670;2023-03-24T16:25:41;9.30;;;2.35;;
21941;SDS011;11135;54.192;15.670;2023-03-24T16:28:52;7.75;;;1.95;;
21941;SDS011;11135;54.192;15.670;2023-03-24T16:32:01;5.72;;;1.65;;
21941;SDS011;11135;54.192;15.670;2023-03-24T16:35:08;4.78;;;1.73;;
21941;SDS011;11135;54.192;15.670;2023-03-24T16:38:14;3.30;;;1.42;;
21941;SDS011;11135;54.192;15.670;2023-03-24T16:41:21;5.90;;;1.33;;
21941;SDS011;11135;54.192;15.670;2023-03-24T16:44:26;6.97;;;1.65;;
21941;SDS011;11135;54.192;15.670;2023-03-24T16:47:35;4.55;;;1.08;;
21941;SDS011;11135;54.192;15.670;2023-03-24T16:50:43;5.70;;;1.50;;
21941;SDS011;11135;54.192;15.670;2023-03-24T16:53:52;6.57;;;1.45;;
21941;SDS011;11135;54.192;15.670;2023-03-24T16:56:57;6.85;;;2.25;;
21941;SDS011;11135;54.192;15.670;2023-03-24T17:00:03;4.35;;;1.63;;
21941;SDS011;11135;54.192;15.670;2023-03-24T17:03:14;8.65;;;2.13;;
21941;SDS011;11135;54.192;15.670;2023-03-24T17:06:20;5.68;;;1.67;;
21941;SDS011;11135;54.192;15.670;2023-03-24T17:09:25;6.20;;;1.88;;
21941;SDS011;11135;54.192;15.670;2023-03-24T17:12:32;6.57;;;1.55;;
21941;SDS011;11135;54.192;15.670;2023-03-24T17:15:38;11.68;;;2.60;;
21941;SDS011;11135;54.192;15.670;2023-03-24T17:18:52;3.77;;;1.30;;
21941;SDS011;11135;54.192;15.670;2023-03-24T17:22:05;5.82;;;1.40;;
21941;SDS011;11135;54.192;15.670;2023-03-24T17:25:20;5.75;;;1.98;;
21941;SDS011;11135;54.192;15.670;2023-03-24T17:28:25;4.82;;;1.45;;
21941;SDS011;11135;54.192;15.670;2023-03-24T17:31:39;8.07;;;1.60;;
21941;SDS011;11135;54.192;15.670;2023-03-24T17:34:49;5.68;;;1.70;;
21941;SDS011;11135;54.192;15.670;2023-03-24T17:37:56;5.38;;;1.50;;
21941;SDS011;11135;54.192;15.670;2023-03-24T17:41:08;5.85;;;2.10;;
21941;SDS011;11135;54.192;15.670;2023-03-24T17:44:18;6.28;;;2.15;;
21941;SDS011;11135;54.192;15.670;2023-03-24T17:47:29;8.00;;;2.20;;
21941;SDS011;11135;54.192;15.670;2023-03-24T17:50:40;8.02;;;2.20;;
21941;SDS011;11135;54.192;15.670;2023-03-24T17:53:49;5.55;;;2.20;;
21941;SDS011;11135;54.192;15.670;2023-03-24T17:57:11;6.20;;;2.22;;
21941;SDS011;11135;54.192;15.670;2023-03-24T18:00:28;8.68;;;2.85;;
21941;SDS011;11135;54.192;15.670;2023-03-24T18:03:38;7.88;;;1.63;;
21941;SDS011;11135;54.192;15.670;2023-03-24T18:06:55;7.10;;;2.60;;
21941;SDS011;11135;54.192;15.670;2023-03-24T18:10:04;7.03;;;2.00;;
21941;SDS011;11135;54.192;15.670;2023-03-24T18:13:15;8.32;;;1.60;;
21941;SDS011;11135;54.192;15.670;2023-03-24T18:16:27;6.38;;;1.63;;
21941;SDS011;11135;54.192;15.670;2023-03-24T18:19:59;6.90;;;1.55;;
21941;SDS011;11135;54.192;15.670;2023-03-24T18:23:29;8.95;;;2.05;;
21941;SDS011;11135;54.192;15.670;2023-03-24T18:30:12;7.78;;;1.60;;
21941;SDS011;11135;54.192;15.670;2023-03-24T18:33:20;6.28;;;2.00;;
21941;SDS011;11135;54.192;15.670;2023-03-24T18:36:45;5.57;;;1.58;;
21941;SDS011;11135;54.192;15.670;2023-03-24T18:40:10;5.93;;;1.42;;
21941;SDS011;11135;54.192;15.670;2023-03-24T18:43:28;6.35;;;1.50;;
21941;SDS011;11135;54.192;15.670;2023-03-24T18:46:41;7.63;;;1.60;;
21941;SDS011;11135;54.192;15.670;2023-03-24T18:49:50;6.85;;;1.20;;
21941;SDS011;11135;54.192;15.670;2023-03-24T18:52:58;5.53;;;1.50;;
21941;SDS011;11135;54.192;15.670;2023-03-24T18:56:10;6.15;;;1.95;;
21941;SDS011;11135;54.192;15.670;2023-03-24T18:59:17;3.25;;;1.10;;
21941;SDS011;11135;54.192;15.670;2023-03-24T19:02:24;8.82;;;1.85;;
21941;SDS011;11135;54.192;15.670;2023-03-24T19:05:32;4.85;;;1.20;;
21941;SDS011;11135;54.192;15.670;2023-03-24T19:08:38;6.82;;;1.20;;
21941;SDS011;11135;54.192;15.670;2023-03-24T19:11:49;6.60;;;1.65;;
21941;SDS011;11135;54.192;15.670;2023-03-24T19:14:54;4.07;;;1.08;;
21941;SDS011;11135;54.192;15.670;2023-03-24T19:18:02;6.75;;;1.48;;
21941;SDS011;11135;54.192;15.670;2023-03-24T19:21:13;5.03;;;1.27;;
21941;SDS011;11135;54.192;15.670;2023-03-24T19:24:25;6.90;;;1.55;;
21941;SDS011;11135;54.192;15.670;2023-03-24T19:27:36;9.43;;;2.80;;
21941;SDS011;11135;54.192;15.670;2023-03-24T19:30:43;7.28;;;1.73;;
21941;SDS011;11135;54.192;15.670;2023-03-24T19:33:49;6.70;;;1.95;;
21941;SDS011;11135;54.192;15.670;2023-03-24T19:36:56;7.32;;;2.40;;
21941;SDS011;11135;54.192;15.670;2023-03-24T19:40:03;8.52;;;2.25;;
21941;SDS011;11135;54.192;15.670;2023-03-24T19:43:25;9.77;;;2.92;;